createdAt,value
2023-04-19T00:01:14.860Z,73
2023-04-19T00:04:15.278Z,73
2023-04-19T00:07:14.861Z,73
2023-04-19T00:10:14.859Z,73
2023-04-19T00:13:14.853Z,73
2023-04-19T00:16:14.866Z,73
2023-04-19T00:19:14.858Z,73
2023-04-19T00:22:14.862Z,74
2023-04-19T00:25:14.859Z,74
2023-04-19T00:28:14.850Z,74
2023-04-19T00:31:14.906Z,74
2023-04-19T00:34:15.039Z,74
2023-04-19T00:37:14.966Z,74
2023-04-19T00:40:14.880Z,74
2023-04-19T00:43:14.886Z,74
2023-04-19T00:46:14.877Z,74
2023-04-19T00:49:14.872Z,74
2023-04-19T00:52:14.838Z,74
2023-04-19T00:55:14.857Z,74
2023-04-19T00:58:14.887Z,74
2023-04-19T01:01:14.879Z,74
2023-04-19T01:04:15.105Z,74
2023-04-19T01:07:14.848Z,74
2023-04-19T01:10:14.859Z,74
2023-04-19T01:13:14.841Z,74
2023-04-19T01:16:14.868Z,74
2023-04-19T01:19:14.845Z,74
2023-04-19T01:22:14.850Z,74
2023-04-19T01:25:14.862Z,74
2023-04-19T01:28:14.837Z,74
2023-04-19T01:31:14.895Z,74
2023-04-19T01:34:15.007Z,75
2023-04-19T01:37:14.836Z,75
2023-04-19T01:40:14.833Z,75
2023-04-19T01:43:14.843Z,75
2023-04-19T01:46:14.878Z,75
2023-04-19T01:49:14.841Z,75
2023-04-19T01:52:14.840Z,75
2023-04-19T01:55:14.842Z,75
2023-04-19T01:58:14.838Z,75
2023-04-19T02:01:14.981Z,75
2023-04-19T02:04:15.044Z,75
2023-04-19T02:07:14.830Z,75
2023-04-19T02:10:14.831Z,75
2023-04-19T02:13:14.832Z,75
2023-04-19T02:16:14.840Z,75
2023-04-19T02:19:14.835Z,75
2023-04-19T02:22:14.837Z,75
2023-04-19T02:25:14.837Z,75
2023-04-19T02:28:14.829Z,75
2023-04-19T02:31:14.833Z,75
2023-04-19T02:34:14.963Z,75
2023-04-19T02:37:14.831Z,75
2023-04-19T02:40:14.820Z,75
2023-04-19T02:43:14.821Z,75
2023-04-19T02:46:14.867Z,75
2023-04-19T02:49:14.814Z,75
2023-04-19T02:52:14.844Z,75
2023-04-19T02:55:15.098Z,75
2023-04-19T02:58:15.043Z,75
2023-04-19T03:04:15.039Z,76
2023-04-19T03:07:14.819Z,76
2023-04-19T03:13:14.827Z,76
2023-04-19T03:16:14.831Z,76
2023-04-19T03:19:14.800Z,76
2023-04-19T03:22:14.822Z,76
2023-04-19T03:25:14.806Z,76
2023-04-19T03:28:14.813Z,76
2023-04-19T03:31:14.833Z,76
2023-04-19T03:34:14.946Z,76
2023-04-19T03:37:14.797Z,76
2023-04-19T03:40:14.780Z,76
2023-04-19T03:43:14.794Z,76
2023-04-19T03:46:14.816Z,77
2023-04-19T03:49:14.779Z,77
2023-04-19T03:52:14.786Z,77
2023-04-19T03:55:14.773Z,77
2023-04-19T03:58:14.783Z,77
2023-04-19T04:01:14.831Z,77
2023-04-19T04:04:15.119Z,77
2023-04-19T04:07:14.798Z,77
2023-04-19T04:10:14.779Z,77
2023-04-19T04:13:14.794Z,77
2023-04-19T04:16:14.814Z,77
2023-04-19T04:19:14.765Z,77
2023-04-19T04:22:14.792Z,77
2023-04-19T04:25:14.761Z,77
2023-04-19T04:28:14.788Z,77
2023-04-19T04:31:14.772Z,77
2023-04-19T04:34:14.945Z,77
2023-04-19T04:37:14.786Z,77
2023-04-19T04:40:14.791Z,77
2023-04-19T04:43:17.296Z,77
2023-04-19T04:49:15.660Z,77
2023-04-19T04:52:15.674Z,77
2023-04-19T04:55:15.666Z,78
2023-04-19T04:58:15.669Z,78
2023-04-19T05:01:15.682Z,78
2023-04-19T05:04:15.847Z,78
2023-04-19T05:07:15.651Z,78
2023-04-19T05:10:15.645Z,78
2023-04-19T05:13:15.650Z,78
2023-04-19T05:16:15.692Z,78
2023-04-19T05:19:15.653Z,78
2023-04-19T05:22:15.682Z,78
2023-04-19T05:25:15.690Z,78
2023-04-19T05:28:15.695Z,78
2023-04-19T05:34:15.966Z,78
2023-04-19T05:37:15.679Z,78
2023-04-19T05:40:15.661Z,78
2023-04-19T05:46:15.681Z,78
2023-04-19T05:49:15.660Z,78
2023-04-19T05:52:15.695Z,78
2023-04-19T05:55:15.666Z,78
2023-04-19T05:58:15.648Z,78
2023-04-19T06:01:15.655Z,78
2023-04-19T06:04:15.980Z,78
2023-04-19T06:07:27.194Z,78
2023-04-19T06:10:15.758Z,78
2023-04-19T06:13:15.648Z,78
2023-04-19T06:16:15.656Z,78
2023-04-19T06:19:15.644Z,77
2023-04-19T06:22:15.660Z,77
2023-04-19T06:25:15.649Z,77
2023-04-19T06:28:15.646Z,77
2023-04-19T06:31:15.648Z,77
2023-04-19T06:34:15.871Z,77
2023-04-19T06:37:15.643Z,77
2023-04-19T06:40:15.643Z,77
2023-04-19T06:43:15.639Z,77
2023-04-19T06:46:15.701Z,77
2023-04-19T06:49:15.641Z,77
2023-04-19T06:52:15.636Z,77
2023-04-19T06:55:15.640Z,76
2023-04-19T06:58:15.642Z,76
2023-04-19T07:01:15.641Z,76
2023-04-19T07:04:16.067Z,76
2023-04-19T07:07:15.658Z,76
2023-04-19T07:13:15.625Z,76
2023-04-19T07:16:15.679Z,76
2023-04-19T07:19:15.644Z,76
2023-04-19T07:22:15.656Z,76
2023-04-19T07:25:15.637Z,76
2023-04-19T07:28:15.635Z,76
2023-04-19T07:31:15.626Z,76
2023-04-19T07:34:15.752Z,75
2023-04-19T07:37:15.629Z,75
2023-04-19T07:40:15.643Z,75
2023-04-19T07:43:15.617Z,75
2023-04-19T07:46:15.635Z,75
2023-04-19T07:49:15.628Z,75
2023-04-19T07:52:15.621Z,75
2023-04-19T07:55:15.621Z,75
2023-04-19T07:58:15.627Z,74
2023-04-19T08:01:15.662Z,74
2023-04-19T08:04:15.902Z,74
2023-04-19T08:07:15.615Z,74
2023-04-19T08:10:15.628Z,74
2023-04-19T08:13:15.617Z,74
2023-04-19T08:16:41.723Z,73
2023-04-19T08:19:15.612Z,73
2023-04-19T08:22:15.628Z,73
2023-04-19T08:25:15.629Z,73
2023-04-19T08:28:15.617Z,73
2023-04-19T08:31:15.611Z,73
2023-04-19T08:34:15.611Z,73
2023-04-19T08:37:15.616Z,73
2023-04-19T08:40:15.615Z,72
2023-04-19T08:43:15.615Z,72
2023-04-19T08:46:15.692Z,72
2023-04-19T08:49:15.766Z,72
2023-04-19T08:52:15.620Z,72
2023-04-19T08:55:15.626Z,72
2023-04-19T08:58:26.700Z,72
2023-04-19T09:04:34.372Z,71
2023-04-19T09:10:15.610Z,71
2023-04-19T09:13:15.631Z,71
2023-04-19T09:16:15.646Z,71
2023-04-19T09:19:23.869Z,71
2023-04-19T09:22:15.655Z,71
2023-04-19T09:25:37.662Z,70
2023-04-19T09:28:15.606Z,70
2023-04-19T09:34:15.608Z,70
2023-04-19T09:37:27.859Z,70
2023-04-19T09:40:15.596Z,70
2023-04-19T09:43:36.743Z,70
2023-04-19T09:46:15.796Z,69
2023-04-19T09:49:21.578Z,69
2023-04-19T09:52:15.611Z,69
2023-04-19T09:55:25.790Z,69
2023-04-19T09:58:15.589Z,68
2023-04-19T10:01:16.726Z,68
2023-04-19T10:10:19.939Z,67
2023-04-19T10:13:20.378Z,67
2023-04-19T10:16:19.303Z,67
2023-04-19T10:19:15.729Z,66
2023-04-19T10:22:15.588Z,66
2023-04-19T10:25:15.594Z,66
2023-04-19T10:28:15.588Z,66
2023-04-19T10:31:15.593Z,66
2023-04-19T10:34:15.597Z,65
2023-04-19T10:37:15.582Z,65
2023-04-19T10:40:15.583Z,65
2023-04-19T10:43:15.586Z,65
2023-04-19T10:46:15.601Z,65
2023-04-19T10:49:15.816Z,65
2023-04-19T10:52:15.595Z,65
2023-04-19T10:55:15.578Z,65
2023-04-19T10:58:15.573Z,64
2023-04-19T11:01:15.594Z,64
2023-04-19T11:04:15.655Z,64
2023-04-19T11:07:15.579Z,63
2023-04-19T11:13:15.575Z,63
2023-04-19T11:16:16.264Z,63
2023-04-19T11:19:15.736Z,62
2023-04-19T11:22:15.570Z,62
2023-04-19T11:25:15.574Z,62
2023-04-19T11:28:15.575Z,61
2023-04-19T11:31:15.588Z,62
2023-04-19T11:37:15.565Z,61
2023-04-19T11:40:15.585Z,61
2023-04-19T11:43:15.568Z,61
2023-04-19T11:46:15.598Z,61
2023-04-19T11:49:15.598Z,60
2023-04-19T11:55:15.590Z,60
2023-04-19T11:58:15.562Z,59
2023-04-19T12:01:15.581Z,59
2023-04-19T12:04:15.891Z,59
2023-04-19T12:07:15.566Z,59
2023-04-19T12:10:15.576Z,59
2023-04-19T12:13:15.577Z,59
2023-04-19T12:16:15.573Z,59
2023-04-19T12:19:15.784Z,58
2023-04-19T12:22:15.571Z,58
2023-04-19T12:25:15.577Z,57
2023-04-19T12:28:15.569Z,57
2023-04-19T12:31:15.564Z,57
2023-04-19T12:34:15.573Z,57
2023-04-19T12:37:15.564Z,57
2023-04-19T12:40:15.559Z,57
2023-04-19T12:43:15.561Z,56
2023-04-19T12:46:15.581Z,56
2023-04-19T12:49:15.664Z,56
2023-04-19T12:55:15.592Z,56
2023-04-19T12:58:15.544Z,55
2023-04-19T13:01:15.607Z,55
2023-04-19T13:04:16.119Z,55
2023-04-19T13:07:15.541Z,55
2023-04-19T13:10:15.554Z,55
2023-04-19T13:13:15.541Z,55
2023-04-19T13:16:15.591Z,55
2023-04-19T13:19:15.545Z,55
2023-04-19T13:22:15.573Z,54
2023-04-19T13:25:15.559Z,54
2023-04-19T13:28:15.543Z,54
2023-04-19T13:31:15.605Z,54
2023-04-19T13:34:15.754Z,53
2023-04-19T13:37:15.531Z,53
2023-04-19T13:40:19.061Z,52
2023-04-19T13:43:15.531Z,52
2023-04-19T13:46:15.581Z,52
2023-04-19T13:49:15.534Z,52
2023-04-19T13:52:15.528Z,51
2023-04-19T13:55:15.547Z,51
2023-04-19T13:58:15.543Z,51
2023-04-19T14:01:15.575Z,51
2023-04-19T14:04:15.917Z,51
2023-04-19T14:07:15.524Z,51
2023-04-19T14:10:15.595Z,50
2023-04-19T14:13:15.553Z,50
2023-04-19T14:16:15.581Z,50
2023-04-19T14:19:15.529Z,50
2023-04-19T14:22:15.528Z,50
2023-04-19T14:25:15.577Z,50
2023-04-19T14:28:15.610Z,50
2023-04-19T14:31:15.554Z,50
2023-04-19T14:34:15.516Z,50
2023-04-19T14:37:15.594Z,50
2023-04-19T14:43:15.516Z,50
2023-04-19T14:46:15.518Z,50
2023-04-19T14:49:15.618Z,50
2023-04-19T14:52:15.533Z,50
2023-04-19T14:55:15.554Z,49
2023-04-19T14:58:15.545Z,50
2023-04-19T15:01:15.505Z,50
2023-04-19T15:04:15.723Z,50
2023-04-19T15:07:15.510Z,50
2023-04-19T15:10:15.500Z,50
2023-04-19T15:13:15.499Z,50
2023-04-19T15:19:15.718Z,50
2023-04-19T15:22:15.512Z,50
2023-04-19T15:25:15.506Z,50
2023-04-19T15:28:15.493Z,50
2023-04-19T15:31:15.530Z,50
2023-04-19T15:34:15.498Z,50
2023-04-19T15:37:15.497Z,50
2023-04-19T15:40:15.499Z,50
2023-04-19T15:43:15.492Z,50
2023-04-19T15:46:15.518Z,50
2023-04-19T15:49:15.645Z,50
2023-04-19T15:52:15.503Z,50
2023-04-19T15:55:15.487Z,50
2023-04-19T15:58:15.493Z,50
2023-04-19T16:01:16.972Z,50
2023-04-19T16:04:15.611Z,50
2023-04-19T16:07:15.501Z,50
2023-04-19T16:10:15.498Z,50
2023-04-19T16:13:15.512Z,50
2023-04-19T16:16:15.501Z,50
2023-04-19T16:19:15.640Z,50
2023-04-19T16:22:15.507Z,50
2023-04-19T16:25:15.499Z,50
2023-04-19T16:28:15.495Z,50
2023-04-19T16:31:15.496Z,50
2023-04-19T16:34:15.482Z,50
2023-04-19T16:37:15.482Z,50
2023-04-19T16:40:15.477Z,51
2023-04-19T16:43:15.485Z,51
2023-04-19T16:46:15.540Z,50
2023-04-19T16:49:15.670Z,50
2023-04-19T16:52:15.475Z,50
2023-04-19T16:55:15.482Z,50
2023-04-19T16:58:15.469Z,50
2023-04-19T17:01:15.521Z,50
2023-04-19T17:04:15.595Z,51
2023-04-19T17:07:15.465Z,51
2023-04-19T17:13:15.477Z,51
2023-04-19T17:16:15.506Z,51
2023-04-19T17:19:15.741Z,51
2023-04-19T17:22:15.470Z,51
2023-04-19T17:25:15.497Z,51
2023-04-19T17:28:15.473Z,51
2023-04-19T17:31:15.503Z,51
2023-04-19T17:34:15.456Z,51
2023-04-19T17:37:15.458Z,51
2023-04-19T17:40:15.463Z,51
2023-04-19T17:43:15.458Z,51
2023-04-19T17:46:15.498Z,51
2023-04-19T17:49:15.621Z,51
2023-04-19T17:52:15.462Z,51
2023-04-19T17:55:15.454Z,51
2023-04-19T17:58:15.448Z,51
2023-04-19T18:01:15.530Z,52
2023-04-19T18:04:15.580Z,52
2023-04-19T18:07:15.449Z,52
2023-04-19T18:10:15.456Z,51
2023-04-19T18:13:15.465Z,51
2023-04-19T18:16:15.498Z,51
2023-04-19T18:19:15.593Z,51
2023-04-19T18:22:15.507Z,52
2023-04-19T18:25:15.455Z,52
2023-04-19T18:28:15.443Z,51
2023-04-19T18:31:15.436Z,52
2023-04-19T18:34:15.438Z,52
2023-04-19T18:37:15.429Z,52
2023-04-19T18:40:15.427Z,52
2023-04-19T18:43:15.445Z,52
2023-04-19T18:46:15.565Z,53
2023-04-19T18:49:15.996Z,53
2023-04-19T18:52:15.436Z,53
2023-04-19T18:55:15.500Z,53
2023-04-19T18:58:15.459Z,53
2023-04-19T19:01:15.432Z,54
2023-04-19T19:07:33.577Z,54
2023-04-19T19:10:20.769Z,54
2023-04-19T19:13:15.418Z,54
2023-04-19T19:16:17.524Z,54
2023-04-19T19:19:15.572Z,54
2023-04-19T19:22:25.521Z,54
2023-04-19T19:25:15.435Z,54
2023-04-19T19:31:15.433Z,54
2023-04-19T19:34:25.664Z,54
2023-04-19T19:37:15.407Z,55
2023-04-19T19:40:15.411Z,55
2023-04-19T19:43:15.422Z,55
2023-04-19T19:46:15.479Z,55
2023-04-19T19:52:15.406Z,55
2023-04-19T19:55:15.411Z,55
2023-04-19T19:58:26.179Z,55
2023-04-19T20:04:15.492Z,56
2023-04-19T20:07:29.242Z,56
2023-04-19T20:10:15.402Z,56
2023-04-19T20:13:15.413Z,56
2023-04-19T20:16:15.505Z,56
2023-04-19T20:19:15.558Z,56
2023-04-19T20:22:15.392Z,56
2023-04-19T20:25:15.405Z,56
2023-04-19T20:28:15.399Z,56
2023-04-19T20:31:15.396Z,56
2023-04-19T20:34:15.454Z,56
2023-04-19T20:37:15.700Z,56
2023-04-19T20:40:15.699Z,56
2023-04-19T20:43:15.386Z,57
2023-04-19T20:46:15.417Z,57
2023-04-19T20:49:15.610Z,57
2023-04-19T20:52:15.395Z,57
2023-04-19T20:55:15.410Z,57
2023-04-19T20:58:15.385Z,57
2023-04-19T21:01:15.428Z,58
2023-04-19T21:04:15.466Z,58
2023-04-19T21:07:15.409Z,58
2023-04-19T21:10:15.414Z,58
2023-04-19T21:13:15.369Z,58
2023-04-19T21:16:15.448Z,58
2023-04-19T21:19:15.569Z,58
2023-04-19T21:22:15.387Z,58
2023-04-19T21:25:15.392Z,59
2023-04-19T21:28:15.391Z,59
2023-04-19T21:31:15.419Z,59
2023-04-19T21:34:15.381Z,59
2023-04-19T21:37:15.395Z,59
2023-04-19T21:40:15.408Z,59
2023-04-19T21:43:15.375Z,59
2023-04-19T21:46:15.420Z,60
2023-04-19T21:52:15.407Z,60
2023-04-19T21:55:15.392Z,60
2023-04-19T21:58:15.377Z,60
2023-04-19T22:01:15.434Z,60
2023-04-19T22:04:15.461Z,60
2023-04-19T22:07:15.374Z,60
2023-04-19T22:10:15.393Z,61
2023-04-19T22:13:15.386Z,61
2023-04-19T22:16:15.402Z,61
2023-04-19T22:19:15.552Z,61
2023-04-19T22:22:15.373Z,61
2023-04-19T22:28:15.373Z,61
2023-04-19T22:31:15.444Z,61
2023-04-19T22:34:15.401Z,61
2023-04-19T22:37:15.363Z,61
2023-04-19T22:40:15.382Z,62
2023-04-19T22:43:15.360Z,62
2023-04-19T22:46:15.431Z,62
2023-04-19T22:49:15.545Z,62
2023-04-19T22:52:15.363Z,62
2023-04-19T22:55:15.368Z,62
2023-04-19T22:58:15.359Z,62
2023-04-19T23:01:15.384Z,62
2023-04-19T23:04:15.415Z,62
2023-04-19T23:07:15.384Z,62
2023-04-19T23:10:15.368Z,62
2023-04-19T23:13:15.348Z,62
2023-04-19T23:16:15.389Z,62
2023-04-19T23:19:15.479Z,63
2023-04-19T23:22:15.342Z,63
2023-04-19T23:25:15.362Z,63
2023-04-19T23:28:15.342Z,63
2023-04-19T23:31:15.373Z,63
2023-04-19T23:34:15.345Z,63
2023-04-19T23:37:15.494Z,63
2023-04-19T23:40:15.371Z,63
2023-04-19T23:43:15.341Z,63
2023-04-19T23:46:15.360Z,63
2023-04-19T23:49:15.546Z,63
2023-04-19T23:52:15.344Z,63
2023-04-19T23:55:15.350Z,63
2023-04-19T23:58:15.349Z,64
